Lawton, Michigan
Current Conditions -  °F | °C
As of 6:53 PM on Saturday 25 Oct 2014 (Local Time) from KAZO Reporting Station
Clear Clear  
Wind Chill: 62°   Ceiling: Unl
Heat Index: 62°   Visibility: 10mi
Dew Point: 33°   Wind: 15mph
Humidity: 34%   Direction: 290°WNW
Pressure: 29.85"   Gusts: 23mph
Location:  42.17°N, 85.85°W
Report Text: KAZO 252253Z 29013G20KT 10SM CLR 17/01 A2985 RMK AO2 SLP107 T01670006 $
Loading
Personal Weather Stations






























Interactive Weather Map
Tropical Storm Tracking
New forecast layout! Learn more

10-Day Weather Forecast

Advertisements
Track Severe Weather on mobile